sensor_id;sensor_type;location;lat;lon;timestamp;P1;durP1;ratioP1;P2;durP2;ratioP2
33810;SDS011;20119;48.334;16.206;2023-04-01T00:00:19;1.95;;;1.15;;
33810;SDS011;20119;48.334;16.206;2023-04-01T00:02:49;2.72;;;1.40;;
33810;SDS011;20119;48.334;16.206;2023-04-01T00:05:18;2.10;;;1.13;;
33810;SDS011;20119;48.334;16.206;2023-04-01T00:07:45;3.15;;;1.20;;
33810;SDS011;20119;48.334;16.206;2023-04-01T00:10:13;3.58;;;1.15;;
33810;SDS011;20119;48.334;16.206;2023-04-01T00:12:41;5.18;;;4.13;;
33810;SDS011;20119;48.334;16.206;2023-04-01T00:15:10;2.28;;;1.17;;
33810;SDS011;20119;48.334;16.206;2023-04-01T00:17:39;1.90;;;1.10;;
33810;SDS011;20119;48.334;16.206;2023-04-01T00:20:08;2.55;;;1.40;;
33810;SDS011;20119;48.334;16.206;2023-04-01T00:22:36;1.67;;;1.20;;
33810;SDS011;20119;48.334;16.206;2023-04-01T00:25:05;2.25;;;1.20;;
33810;SDS011;20119;48.334;16.206;2023-04-01T00:27:32;2.53;;;1.10;;
33810;SDS011;20119;48.334;16.206;2023-04-01T00:30:00;2.17;;;1.15;;
33810;SDS011;20119;48.334;16.206;2023-04-01T00:32:29;2.40;;;1.40;;
33810;SDS011;20119;48.334;16.206;2023-04-01T00:34:56;2.00;;;1.00;;
33810;SDS011;20119;48.334;16.206;2023-04-01T00:37:26;3.67;;;1.30;;
33810;SDS011;20119;48.334;16.206;2023-04-01T00:39:54;1.50;;;0.88;;
33810;SDS011;20119;48.334;16.206;2023-04-01T00:42:22;2.00;;;1.10;;
33810;SDS011;20119;48.334;16.206;2023-04-01T00:44:51;4.82;;;1.25;;
33810;SDS011;20119;48.334;16.206;2023-04-01T00:47:21;2.85;;;1.25;;
33810;SDS011;20119;48.334;16.206;2023-04-01T00:49:51;2.38;;;1.10;;
33810;SDS011;20119;48.334;16.206;2023-04-01T00:52:22;3.20;;;1.30;;
33810;SDS011;20119;48.334;16.206;2023-04-01T00:54:54;1.67;;;1.10;;
33810;SDS011;20119;48.334;16.206;2023-04-01T00:57:27;3.38;;;1.40;;
33810;SDS011;20119;48.334;16.206;2023-04-01T00:59:58;1.90;;;1.10;;
33810;SDS011;20119;48.334;16.206;2023-04-01T01:02:26;3.17;;;1.20;;
33810;SDS011;20119;48.334;16.206;2023-04-01T01:04:55;2.67;;;1.13;;
33810;SDS011;20119;48.334;16.206;2023-04-01T01:07:24;3.92;;;1.25;;
33810;SDS011;20119;48.334;16.206;2023-04-01T01:10:01;2.67;;;1.15;;
33810;SDS011;20119;48.334;16.206;2023-04-01T01:12:35;3.80;;;1.35;;
33810;SDS011;20119;48.334;16.206;2023-04-01T01:15:08;2.13;;;1.00;;
33810;SDS011;20119;48.334;16.206;2023-04-01T01:17:44;3.35;;;1.30;;
33810;SDS011;20119;48.334;16.206;2023-04-01T01:20:27;3.13;;;1.38;;
33810;SDS011;20119;48.334;16.206;2023-04-01T01:23:32;3.55;;;1.20;;
33810;SDS011;20119;48.334;16.206;2023-04-01T01:32:41;4.88;;;1.30;;
33810;SDS011;20119;48.334;16.206;2023-04-01T01:35:40;2.70;;;1.20;;
33810;SDS011;20119;48.334;16.206;2023-04-01T01:38:12;2.40;;;1.10;;
33810;SDS011;20119;48.334;16.206;2023-04-01T01:40:43;3.72;;;1.17;;
33810;SDS011;20119;48.334;16.206;2023-04-01T01:43:16;1.60;;;0.93;;
33810;SDS011;20119;48.334;16.206;2023-04-01T01:45:48;3.60;;;1.10;;
33810;SDS011;20119;48.334;16.206;2023-04-01T01:48:20;2.05;;;1.00;;
33810;SDS011;20119;48.334;16.206;2023-04-01T01:50:51;3.67;;;0.90;;
33810;SDS011;20119;48.334;16.206;2023-04-01T01:53:19;2.97;;;0.90;;
33810;SDS011;20119;48.334;16.206;2023-04-01T01:55:47;2.75;;;1.10;;
33810;SDS011;20119;48.334;16.206;2023-04-01T01:58:16;5.65;;;1.20;;
33810;SDS011;20119;48.334;16.206;2023-04-01T02:00:48;3.00;;;0.93;;
33810;SDS011;20119;48.334;16.206;2023-04-01T02:03:20;4.38;;;1.10;;
33810;SDS011;20119;48.334;16.206;2023-04-01T02:05:51;1.38;;;0.93;;
33810;SDS011;20119;48.334;16.206;2023-04-01T02:08:21;7.13;;;1.30;;
33810;SDS011;20119;48.334;16.206;2023-04-01T02:10:54;2.88;;;1.13;;
33810;SDS011;20119;48.334;16.206;2023-04-01T02:13:27;2.47;;;1.00;;
33810;SDS011;20119;48.334;16.206;2023-04-01T02:15:59;3.13;;;1.10;;
33810;SDS011;20119;48.334;16.206;2023-04-01T02:18:32;3.40;;;1.00;;
33810;SDS011;20119;48.334;16.206;2023-04-01T02:21:04;2.17;;;1.20;;
33810;SDS011;20119;48.334;16.206;2023-04-01T02:23:34;6.22;;;1.10;;
33810;SDS011;20119;48.334;16.206;2023-04-01T02:26:02;3.22;;;1.00;;
33810;SDS011;20119;48.334;16.206;2023-04-01T02:28:33;3.50;;;1.20;;
33810;SDS011;20119;48.334;16.206;2023-04-01T02:31:03;2.47;;;1.00;;
33810;SDS011;20119;48.334;16.206;2023-04-01T02:33:33;3.60;;;0.98;;
33810;SDS011;20119;48.334;16.206;2023-04-01T02:36:01;3.20;;;0.90;;
33810;SDS011;20119;48.334;16.206;2023-04-01T02:38:31;3.23;;;1.00;;
33810;SDS011;20119;48.334;16.206;2023-04-01T02:40:58;3.75;;;1.17;;
33810;SDS011;20119;48.334;16.206;2023-04-01T02:43:27;4.22;;;1.35;;
33810;SDS011;20119;48.334;16.206;2023-04-01T02:45:55;1.52;;;1.00;;
33810;SDS011;20119;48.334;16.206;2023-04-01T02:48:23;3.17;;;1.20;;
33810;SDS011;20119;48.334;16.206;2023-04-01T02:50:50;5.32;;;1.13;;
33810;SDS011;20119;48.334;16.206;2023-04-01T02:55:49;4.18;;;1.40;;
33810;SDS011;20119;48.334;16.206;2023-04-01T02:58:17;3.53;;;1.38;;
33810;SDS011;20119;48.334;16.206;2023-04-01T03:00:45;2.80;;;1.02;;
33810;SDS011;20119;48.334;16.206;2023-04-01T03:03:13;8.23;;;1.60;;
33810;SDS011;20119;48.334;16.206;2023-04-01T03:05:40;4.80;;;1.30;;
33810;SDS011;20119;48.334;16.206;2023-04-01T03:08:08;4.15;;;1.30;;
33810;SDS011;20119;48.334;16.206;2023-04-01T03:10:38;4.03;;;1.50;;
33810;SDS011;20119;48.334;16.206;2023-04-01T03:13:06;4.90;;;1.38;;
33810;SDS011;20119;48.334;16.206;2023-04-01T03:15:34;3.38;;;1.25;;
33810;SDS011;20119;48.334;16.206;2023-04-01T03:18:02;3.28;;;1.20;;
33810;SDS011;20119;48.334;16.206;2023-04-01T03:20:31;2.78;;;1.23;;
33810;SDS011;20119;48.334;16.206;2023-04-01T03:22:59;2.85;;;1.15;;
33810;SDS011;20119;48.334;16.206;2023-04-01T03:25:27;3.45;;;1.10;;
33810;SDS011;20119;48.334;16.206;2023-04-01T03:27:57;3.35;;;1.15;;
33810;SDS011;20119;48.334;16.206;2023-04-01T03:30:24;5.38;;;1.30;;
33810;SDS011;20119;48.334;16.206;2023-04-01T03:32:53;4.07;;;1.02;;
33810;SDS011;20119;48.334;16.206;2023-04-01T03:35:20;3.22;;;0.90;;
33810;SDS011;20119;48.334;16.206;2023-04-01T03:37:47;8.02;;;1.08;;
33810;SDS011;20119;48.334;16.206;2023-04-01T03:40:16;5.65;;;1.13;;
33810;SDS011;20119;48.334;16.206;2023-04-01T03:42:44;2.83;;;1.05;;
33810;SDS011;20119;48.334;16.206;2023-04-01T03:45:34;3.88;;;1.42;;
33810;SDS011;20119;48.334;16.206;2023-04-01T03:48:01;5.63;;;1.52;;
33810;SDS011;20119;48.334;16.206;2023-04-01T03:50:29;4.70;;;1.20;;
33810;SDS011;20119;48.334;16.206;2023-04-01T03:52:56;3.35;;;1.27;;
33810;SDS011;20119;48.334;16.206;2023-04-01T03:55:24;5.30;;;1.40;;
33810;SDS011;20119;48.334;16.206;2023-04-01T03:57:51;4.38;;;1.30;;
33810;SDS011;20119;48.334;16.206;2023-04-01T04:00:19;3.17;;;1.15;;
33810;SDS011;20119;48.334;16.206;2023-04-01T04:02:48;6.70;;;1.30;;
33810;SDS011;20119;48.334;16.206;2023-04-01T04:05:15;3.40;;;1.30;;
33810;SDS011;20119;48.334;16.206;2023-04-01T04:07:43;3.22;;;1.15;;
33810;SDS011;20119;48.334;16.206;2023-04-01T04:10:10;3.17;;;1.30;;
33810;SDS011;20119;48.334;16.206;2023-04-01T04:12:37;4.97;;;1.27;;
33810;SDS011;20119;48.334;16.206;2023-04-01T04:15:06;5.53;;;1.52;;
33810;SDS011;20119;48.334;16.206;2023-04-01T04:17:34;3.30;;;1.20;;
33810;SDS011;20119;48.334;16.206;2023-04-01T04:20:04;3.67;;;1.33;;
33810;SDS011;20119;48.334;16.206;2023-04-01T04:22:33;3.65;;;1.35;;
33810;SDS011;20119;48.334;16.206;2023-04-01T04:25:00;3.13;;;1.20;;
33810;SDS011;20119;48.334;16.206;2023-04-01T04:27:28;2.70;;;1.13;;
33810;SDS011;20119;48.334;16.206;2023-04-01T04:29:55;2.17;;;1.20;;
33810;SDS011;20119;48.334;16.206;2023-04-01T04:32:23;4.28;;;1.30;;
33810;SDS011;20119;48.334;16.206;2023-04-01T04:34:50;4.65;;;1.20;;
33810;SDS011;20119;48.334;16.206;2023-04-01T04:37:20;4.10;;;1.23;;
33810;SDS011;20119;48.334;16.206;2023-04-01T04:39:47;2.47;;;1.10;;
33810;SDS011;20119;48.334;16.206;2023-04-01T04:42:15;2.35;;;1.00;;
33810;SDS011;20119;48.334;16.206;2023-04-01T04:44:42;2.20;;;0.90;;
33810;SDS011;20119;48.334;16.206;2023-04-01T04:47:12;5.20;;;1.10;;
33810;SDS011;20119;48.334;16.206;2023-04-01T04:52:06;5.00;;;0.90;;
33810;SDS011;20119;48.334;16.206;2023-04-01T04:54:35;2.15;;;0.90;;
33810;SDS011;20119;48.334;16.206;2023-04-01T04:57:02;3.05;;;0.93;;
33810;SDS011;20119;48.334;16.206;2023-04-01T04:59:30;3.50;;;1.33;;
33810;SDS011;20119;48.334;16.206;2023-04-01T05:01:57;3.33;;;1.00;;
33810;SDS011;20119;48.334;16.206;2023-04-01T05:04:24;5.22;;;0.90;;
33810;SDS011;20119;48.334;16.206;2023-04-01T05:06:51;4.57;;;1.00;;
33810;SDS011;20119;48.334;16.206;2023-04-01T05:09:18;4.28;;;1.30;;
33810;SDS011;20119;48.334;16.206;2023-04-01T05:11:47;3.88;;;1.20;;
33810;SDS011;20119;48.334;16.206;2023-04-01T05:14:15;2.25;;;1.00;;
33810;SDS011;20119;48.334;16.206;2023-04-01T05:16:42;3.38;;;1.00;;
33810;SDS011;20119;48.334;16.206;2023-04-01T05:19:10;3.75;;;1.00;;
33810;SDS011;20119;48.334;16.206;2023-04-01T05:21:37;1.67;;;0.82;;
33810;SDS011;20119;48.334;16.206;2023-04-01T05:24:07;2.50;;;0.93;;
33810;SDS011;20119;48.334;16.206;2023-04-01T05:26:35;2.17;;;0.90;;
33810;SDS011;20119;48.334;16.206;2023-04-01T05:29:04;3.63;;;1.10;;
33810;SDS011;20119;48.334;16.206;2023-04-01T05:31:32;1.85;;;0.90;;
33810;SDS011;20119;48.334;16.206;2023-04-01T05:33:59;2.90;;;0.90;;
33810;SDS011;20119;48.334;16.206;2023-04-01T05:36:27;3.00;;;1.00;;
33810;SDS011;20119;48.334;16.206;2023-04-01T05:38:55;2.60;;;0.98;;
33810;SDS011;20119;48.334;16.206;2023-04-01T05:41:22;3.00;;;0.80;;
33810;SDS011;20119;48.334;16.206;2023-04-01T05:43:50;2.58;;;1.00;;
33810;SDS011;20119;48.334;16.206;2023-04-01T05:46:19;1.75;;;0.77;;
33810;SDS011;20119;48.334;16.206;2023-04-01T05:48:47;3.42;;;0.95;;
33810;SDS011;20119;48.334;16.206;2023-04-01T05:51:15;2.88;;;0.98;;
33810;SDS011;20119;48.334;16.206;2023-04-01T05:53:42;3.00;;;1.00;;
33810;SDS011;20119;48.334;16.206;2023-04-01T05:56:11;3.67;;;1.00;;
33810;SDS011;20119;48.334;16.206;2023-04-01T05:58:38;2.25;;;1.10;;
33810;SDS011;20119;48.334;16.206;2023-04-01T06:01:07;2.42;;;0.93;;
33810;SDS011;20119;48.334;16.206;2023-04-01T06:03:38;1.83;;;0.80;;
33810;SDS011;20119;48.334;16.206;2023-04-01T06:06:08;2.05;;;0.80;;
33810;SDS011;20119;48.334;16.206;2023-04-01T06:08:40;1.40;;;0.70;;
33810;SDS011;20119;48.334;16.206;2023-04-01T06:11:13;2.22;;;0.80;;
33810;SDS011;20119;48.334;16.206;2023-04-01T06:16:40;2.65;;;0.80;;
33810;SDS011;20119;48.334;16.206;2023-04-01T06:19:28;2.33;;;0.90;;
33810;SDS011;20119;48.334;16.206;2023-04-01T06:22:16;1.35;;;0.70;;
33810;SDS011;20119;48.334;16.206;2023-04-01T06:25:23;1.52;;;0.73;;
33810;SDS011;20119;48.334;16.206;2023-04-01T06:28:19;2.20;;;1.10;;
33810;SDS011;20119;48.334;16.206;2023-04-01T06:31:05;3.28;;;1.50;;
33810;SDS011;20119;48.334;16.206;2023-04-01T06:33:52;2.35;;;1.63;;
33810;SDS011;20119;48.334;16.206;2023-04-01T06:36:39;4.50;;;1.60;;
33810;SDS011;20119;48.334;16.206;2023-04-01T06:39:22;4.32;;;1.60;;
33810;SDS011;20119;48.334;16.206;2023-04-01T06:42:23;2.70;;;0.98;;
33810;SDS011;20119;48.334;16.206;2023-04-01T06:45:03;2.83;;;1.23;;
33810;SDS011;20119;48.334;16.206;2023-04-01T06:47:46;3.90;;;1.30;;
33810;SDS011;20119;48.334;16.206;2023-04-01T06:50:24;3.35;;;1.10;;
33810;SDS011;20119;48.334;16.206;2023-04-01T06:53:00;3.05;;;1.25;;
33810;SDS011;20119;48.334;16.206;2023-04-01T06:55:38;2.78;;;1.30;;
33810;SDS011;20119;48.334;16.206;2023-04-01T06:58:13;3.67;;;1.45;;
33810;SDS011;20119;48.334;16.206;2023-04-01T07:00:48;4.47;;;1.17;;
33810;SDS011;20119;48.334;16.206;2023-04-01T07:03:19;2.67;;;1.20;;
33810;SDS011;20119;48.334;16.206;2023-04-01T07:05:49;2.35;;;1.10;;
33810;SDS011;20119;48.334;16.206;2023-04-01T07:08:21;3.28;;;0.95;;
33810;SDS011;20119;48.334;16.206;2023-04-01T07:10:53;2.20;;;0.88;;
33810;SDS011;20119;48.334;16.206;2023-04-01T07:13:24;1.52;;;0.80;;
33810;SDS011;20119;48.334;16.206;2023-04-01T07:15:57;3.00;;;1.00;;
33810;SDS011;20119;48.334;16.206;2023-04-01T07:18:32;2.88;;;1.08;;
33810;SDS011;20119;48.334;16.206;2023-04-01T07:21:10;3.03;;;1.30;;
33810;SDS011;20119;48.334;16.206;2023-04-01T07:23:47;2.85;;;1.27;;
33810;SDS011;20119;48.334;16.206;2023-04-01T07:26:21;2.25;;;1.38;;
33810;SDS011;20119;48.334;16.206;2023-04-01T07:28:50;2.28;;;1.23;;
33810;SDS011;20119;48.334;16.206;2023-04-01T07:31:20;4.95;;;1.42;;
33810;SDS011;20119;48.334;16.206;2023-04-01T07:33:58;3.10;;;1.20;;
33810;SDS011;20119;48.334;16.206;2023-04-01T07:36:33;1.73;;;1.10;;
33810;SDS011;20119;48.334;16.206;2023-04-01T07:39:08;3.65;;;1.20;;
33810;SDS011;20119;48.334;16.206;2023-04-01T07:41:49;3.53;;;1.30;;
33810;SDS011;20119;48.334;16.206;2023-04-01T07:44:24;4.18;;;1.20;;
33810;SDS011;20119;48.334;16.206;2023-04-01T07:46:59;5.22;;;1.60;;
33810;SDS011;20119;48.334;16.206;2023-04-01T07:49:43;5.00;;;1.40;;
33810;SDS011;20119;48.334;16.206;2023-04-01T07:52:21;2.13;;;1.20;;
33810;SDS011;20119;48.334;16.206;2023-04-01T07:54:57;2.92;;;1.25;;
33810;SDS011;20119;48.334;16.206;2023-04-01T07:57:33;2.00;;;1.08;;
33810;SDS011;20119;48.334;16.206;2023-04-01T08:00:11;3.72;;;1.50;;
33810;SDS011;20119;48.334;16.206;2023-04-01T08:02:56;2.78;;;1.30;;
33810;SDS011;20119;48.334;16.206;2023-04-01T08:05:46;2.22;;;1.30;;
33810;SDS011;20119;48.334;16.206;2023-04-01T08:08:24;3.83;;;1.50;;
33810;SDS011;20119;48.334;16.206;2023-04-01T08:11:04;1.92;;;1.40;;
33810;SDS011;20119;48.334;16.206;2023-04-01T08:13:40;2.42;;;1.40;;
33810;SDS011;20119;48.334;16.206;2023-04-01T08:16:16;3.00;;;1.30;;
33810;SDS011;20119;48.334;16.206;2023-04-01T08:18:52;3.17;;;1.30;;
33810;SDS011;20119;48.334;16.206;2023-04-01T08:21:27;3.38;;;1.40;;
33810;SDS011;20119;48.334;16.206;2023-04-01T08:24:00;2.47;;;1.40;;
33810;SDS011;20119;48.334;16.206;2023-04-01T08:26:39;2.90;;;1.30;;
33810;SDS011;20119;48.334;16.206;2023-04-01T08:29:10;3.35;;;1.35;;
33810;SDS011;20119;48.334;16.206;2023-04-01T08:31:40;2.60;;;1.50;;
33810;SDS011;20119;48.334;16.206;2023-04-01T08:34:14;1.95;;;1.30;;
33810;SDS011;20119;48.334;16.206;2023-04-01T08:36:48;1.85;;;1.50;;
33810;SDS011;20119;48.334;16.206;2023-04-01T08:39:21;3.72;;;1.48;;
33810;SDS011;20119;48.334;16.206;2023-04-01T08:42:22;2.97;;;1.60;;
33810;SDS011;20119;48.334;16.206;2023-04-01T08:45:18;2.17;;;1.50;;
33810;SDS011;20119;48.334;16.206;2023-04-01T08:48:04;3.42;;;1.40;;
33810;SDS011;20119;48.334;16.206;2023-04-01T08:50:58;2.25;;;1.30;;
33810;SDS011;20119;48.334;16.206;2023-04-01T08:53:48;2.65;;;1.42;;
33810;SDS011;20119;48.334;16.206;2023-04-01T08:56:28;2.42;;;1.27;;
33810;SDS011;20119;48.334;16.206;2023-04-01T08:59:15;1.50;;;0.90;;
33810;SDS011;20119;48.334;16.206;2023-04-01T09:02:03;3.30;;;1.05;;
33810;SDS011;20119;48.334;16.206;2023-04-01T09:04:59;1.25;;;0.95;;
33810;SDS011;20119;48.334;16.206;2023-04-01T09:07:57;1.98;;;1.10;;
33810;SDS011;20119;48.334;16.206;2023-04-01T09:13:24;3.47;;;1.42;;
33810;SDS011;20119;48.334;16.206;2023-04-01T09:16:09;5.03;;;0.70;;
33810;SDS011;20119;48.334;16.206;2023-04-01T09:22:09;1.20;;;0.50;;
33810;SDS011;20119;48.334;16.206;2023-04-01T09:27:40;1.27;;;0.50;;
33810;SDS011;20119;48.334;16.206;2023-04-01T09:30:28;0.52;;;0.25;;
33810;SDS011;20119;48.334;16.206;2023-04-01T09:36:04;0.30;;;0.20;;
33810;SDS011;20119;48.334;16.206;2023-04-01T09:38:39;0.20;;;0.20;;
33810;SDS011;20119;48.334;16.206;2023-04-01T09:41:21;0.65;;;0.20;;
33810;SDS011;20119;48.334;16.206;2023-04-01T09:44:02;0.65;;;0.20;;
33810;SDS011;20119;48.334;16.206;2023-04-01T09:46:46;0.20;;;0.20;;
33810;SDS011;20119;48.334;16.206;2023-04-01T09:52:30;0.45;;;0.30;;
33810;SDS011;20119;48.334;16.206;2023-04-01T09:55:14;0.55;;;0.30;;
33810;SDS011;20119;48.334;16.206;2023-04-01T09:58:02;1.95;;;0.30;;
33810;SDS011;20119;48.334;16.206;2023-04-01T10:04:06;1.77;;;0.40;;
33810;SDS011;20119;48.334;16.206;2023-04-01T10:06:57;0.80;;;0.30;;
33810;SDS011;20119;48.334;16.206;2023-04-01T10:13:00;0.38;;;0.30;;
33810;SDS011;20119;48.334;16.206;2023-04-01T10:15:59;0.68;;;0.40;;
33810;SDS011;20119;48.334;16.206;2023-04-01T10:19:01;0.57;;;0.22;;
33810;SDS011;20119;48.334;16.206;2023-04-01T10:22:15;0.45;;;0.43;;
33810;SDS011;20119;48.334;16.206;2023-04-01T10:30:49;3.13;;;0.35;;
33810;SDS011;20119;48.334;16.206;2023-04-01T10:33:49;0.30;;;0.22;;
33810;SDS011;20119;48.334;16.206;2023-04-01T10:36:52;1.65;;;0.47;;
33810;SDS011;20119;48.334;16.206;2023-04-01T10:39:33;1.05;;;0.40;;
33810;SDS011;20119;48.334;16.206;2023-04-01T10:42:34;0.98;;;0.55;;
33810;SDS011;20119;48.334;16.206;2023-04-01T10:45:37;1.17;;;0.50;;
33810;SDS011;20119;48.334;16.206;2023-04-01T10:48:43;0.82;;;0.70;;
33810;SDS011;20119;48.334;16.206;2023-04-01T10:51:47;0.85;;;0.70;;
33810;SDS011;20119;48.334;16.206;2023-04-01T10:54:40;0.85;;;0.50;;
33810;SDS011;20119;48.334;16.206;2023-04-01T10:57:18;1.05;;;0.60;;
33810;SDS011;20119;48.334;16.206;2023-04-01T11:00:17;1.50;;;0.50;;
33810;SDS011;20119;48.334;16.206;2023-04-01T11:03:09;1.15;;;0.22;;
33810;SDS011;20119;48.334;16.206;2023-04-01T11:09:09;0.65;;;0.45;;
33810;SDS011;20119;48.334;16.206;2023-04-01T11:18:17;2.45;;;1.08;;
33810;SDS011;20119;48.334;16.206;2023-04-01T11:21:22;3.60;;;1.40;;
33810;SDS011;20119;48.334;16.206;2023-04-01T11:24:34;1.70;;;0.80;;
33810;SDS011;20119;48.334;16.206;2023-04-01T11:27:19;6.38;;;1.98;;
33810;SDS011;20119;48.334;16.206;2023-04-01T11:30:07;2.97;;;1.00;;
33810;SDS011;20119;48.334;16.206;2023-04-01T11:32:50;2.60;;;1.20;;
33810;SDS011;20119;48.334;16.206;2023-04-01T11:35:42;2.97;;;1.05;;
33810;SDS011;20119;48.334;16.206;2023-04-01T11:38:31;4.07;;;1.58;;
33810;SDS011;20119;48.334;16.206;2023-04-01T11:41:15;1.00;;;0.70;;
33810;SDS011;20119;48.334;16.206;2023-04-01T11:43:55;0.70;;;0.40;;
33810;SDS011;20119;48.334;16.206;2023-04-01T11:46:37;0.35;;;0.30;;
33810;SDS011;20119;48.334;16.206;2023-04-01T11:49:19;0.28;;;0.28;;
33810;SDS011;20119;48.334;16.206;2023-04-01T11:52:14;1.45;;;0.30;;
33810;SDS011;20119;48.334;16.206;2023-04-01T11:54:54;0.82;;;0.50;;
33810;SDS011;20119;48.334;16.206;2023-04-01T11:57:53;0.40;;;0.40;;
33810;SDS011;20119;48.334;16.206;2023-04-01T12:00:40;0.75;;;0.47;;
33810;SDS011;20119;48.334;16.206;2023-04-01T12:03:32;0.55;;;0.30;;
33810;SDS011;20119;48.334;16.206;2023-04-01T12:06:14;0.20;;;0.20;;
33810;SDS011;20119;48.334;16.206;2023-04-01T12:08:50;0.80;;;0.50;;
33810;SDS011;20119;48.334;16.206;2023-04-01T12:11:29;0.32;;;0.30;;
33810;SDS011;20119;48.334;16.206;2023-04-01T12:14:09;0.15;;;0.15;;
33810;SDS011;20119;48.334;16.206;2023-04-01T12:16:44;0.52;;;0.28;;
33810;SDS011;20119;48.334;16.206;2023-04-01T12:19:21;0.57;;;0.43;;
33810;SDS011;20119;48.334;16.206;2023-04-01T12:21:59;1.85;;;0.30;;
33810;SDS011;20119;48.334;16.206;2023-04-01T12:24:53;0.40;;;0.30;;
33810;SDS011;20119;48.334;16.206;2023-04-01T12:27:31;0.40;;;0.35;;
33810;SDS011;20119;48.334;16.206;2023-04-01T12:32:55;0.55;;;0.32;;
33810;SDS011;20119;48.334;16.206;2023-04-01T12:35:32;1.00;;;0.32;;
33810;SDS011;20119;48.334;16.206;2023-04-01T12:38:15;0.30;;;0.20;;
33810;SDS011;20119;48.334;16.206;2023-04-01T12:47:05;1.17;;;0.50;;
33810;SDS011;20119;48.334;16.206;2023-04-01T12:49:55;0.88;;;0.60;;
33810;SDS011;20119;48.334;16.206;2023-04-01T12:52:39;1.13;;;0.50;;
33810;SDS011;20119;48.334;16.206;2023-04-01T12:58:13;0.88;;;0.40;;
33810;SDS011;20119;48.334;16.206;2023-04-01T13:10:07;0.43;;;0.28;;
33810;SDS011;20119;48.334;16.206;2023-04-01T13:12:46;0.68;;;0.30;;
33810;SDS011;20119;48.334;16.206;2023-04-01T13:15:36;2.00;;;0.80;;
33810;SDS011;20119;48.334;16.206;2023-04-01T13:18:13;2.00;;;1.30;;
33810;SDS011;20119;48.334;16.206;2023-04-01T13:20:48;0.93;;;0.32;;
33810;SDS011;20119;48.334;16.206;2023-04-01T13:23:37;0.20;;;0.20;;
33810;SDS011;20119;48.334;16.206;2023-04-01T13:26:22;0.55;;;0.32;;
33810;SDS011;20119;48.334;16.206;2023-04-01T13:28:56;0.25;;;0.20;;
33810;SDS011;20119;48.334;16.206;2023-04-01T13:31:35;0.63;;;0.30;;
33810;SDS011;20119;48.334;16.206;2023-04-01T13:34:19;1.33;;;0.30;;
33810;SDS011;20119;48.334;16.206;2023-04-01T13:37:01;0.40;;;0.30;;
33810;SDS011;20119;48.334;16.206;2023-04-01T13:39:45;0.60;;;0.30;;
33810;SDS011;20119;48.334;16.206;2023-04-01T13:42:24;2.15;;;0.30;;
33810;SDS011;20119;48.334;16.206;2023-04-01T13:44:56;0.75;;;0.30;;
33810;SDS011;20119;48.334;16.206;2023-04-01T13:47:53;0.68;;;0.32;;
33810;SDS011;20119;48.334;16.206;2023-04-01T13:50:56;0.50;;;0.25;;
33810;SDS011;20119;48.334;16.206;2023-04-01T13:53:43;0.75;;;0.28;;
33810;SDS011;20119;48.334;16.206;2023-04-01T13:56:41;1.15;;;0.40;;
33810;SDS011;20119;48.334;16.206;2023-04-01T13:59:25;0.57;;;0.32;;
33810;SDS011;20119;48.334;16.206;2023-04-01T14:02:21;0.30;;;0.22;;
33810;SDS011;20119;48.334;16.206;2023-04-01T14:05:06;0.80;;;0.30;;
33810;SDS011;20119;48.334;16.206;2023-04-01T14:07:50;0.63;;;0.30;;
33810;SDS011;20119;48.334;16.206;2023-04-01T14:10:30;1.10;;;0.30;;
33810;SDS011;20119;48.334;16.206;2023-04-01T14:13:04;1.10;;;0.30;;
33810;SDS011;20119;48.334;16.206;2023-04-01T14:15:45;0.38;;;0.20;;
33810;SDS011;20119;48.334;16.206;2023-04-01T14:18:51;2.38;;;0.20;;
33810;SDS011;20119;48.334;16.206;2023-04-01T14:21:33;0.52;;;0.30;;
33810;SDS011;20119;48.334;16.206;2023-04-01T14:24:12;0.30;;;0.30;;
33810;SDS011;20119;48.334;16.206;2023-04-01T14:29:56;0.70;;;0.20;;
33810;SDS011;20119;48.334;16.206;2023-04-01T14:32:34;0.20;;;0.20;;
33810;SDS011;20119;48.334;16.206;2023-04-01T14:35:23;0.65;;;0.30;;
33810;SDS011;20119;48.334;16.206;2023-04-01T14:38:02;0.65;;;0.30;;
33810;SDS011;20119;48.334;16.206;2023-04-01T14:40:53;0.30;;;0.30;;
33810;SDS011;20119;48.334;16.206;2023-04-01T14:43:44;0.40;;;0.28;;
33810;SDS011;20119;48.334;16.206;2023-04-01T14:46:34;0.50;;;0.30;;
33810;SDS011;20119;48.334;16.206;2023-04-01T14:49:29;0.30;;;0.20;;
33810;SDS011;20119;48.334;16.206;2023-04-01T14:52:03;0.70;;;0.30;;
33810;SDS011;20119;48.334;16.206;2023-04-01T14:54:36;1.60;;;0.30;;
33810;SDS011;20119;48.334;16.206;2023-04-01T14:57:10;0.77;;;0.43;;
33810;SDS011;20119;48.334;16.206;2023-04-01T14:59:40;0.82;;;0.40;;
33810;SDS011;20119;48.334;16.206;2023-04-01T15:02:25;1.48;;;0.30;;
33810;SDS011;20119;48.334;16.206;2023-04-01T15:07:47;1.40;;;0.30;;
33810;SDS011;20119;48.334;16.206;2023-04-01T15:13:47;0.32;;;0.22;;
33810;SDS011;20119;48.334;16.206;2023-04-01T15:16:23;0.30;;;0.30;;
33810;SDS011;20119;48.334;16.206;2023-04-01T15:18:56;0.70;;;0.30;;
33810;SDS011;20119;48.334;16.206;2023-04-01T15:21:41;1.67;;;0.40;;
33810;SDS011;20119;48.334;16.206;2023-04-01T15:24:20;1.83;;;0.35;;
33810;SDS011;20119;48.334;16.206;2023-04-01T15:26:53;0.43;;;0.30;;
33810;SDS011;20119;48.334;16.206;2023-04-01T15:29:40;0.52;;;0.40;;
33810;SDS011;20119;48.334;16.206;2023-04-01T15:32:18;0.47;;;0.40;;
33810;SDS011;20119;48.334;16.206;2023-04-01T15:34:53;0.28;;;0.25;;
33810;SDS011;20119;48.334;16.206;2023-04-01T15:37:29;0.40;;;0.30;;
33810;SDS011;20119;48.334;16.206;2023-04-01T15:40:11;0.68;;;0.30;;
33810;SDS011;20119;48.334;16.206;2023-04-01T15:42:49;0.75;;;0.30;;
33810;SDS011;20119;48.334;16.206;2023-04-01T15:45:32;1.00;;;0.47;;
33810;SDS011;20119;48.334;16.206;2023-04-01T15:48:10;1.02;;;0.40;;
33810;SDS011;20119;48.334;16.206;2023-04-01T15:50:55;0.95;;;0.50;;
33810;SDS011;20119;48.334;16.206;2023-04-01T15:56:41;0.50;;;0.50;;
33810;SDS011;20119;48.334;16.206;2023-04-01T15:59:22;1.02;;;0.47;;
33810;SDS011;20119;48.334;16.206;2023-04-01T16:02:07;1.20;;;0.60;;
33810;SDS011;20119;48.334;16.206;2023-04-01T16:04:54;1.90;;;1.40;;
33810;SDS011;20119;48.334;16.206;2023-04-01T16:07:30;1.15;;;0.60;;
33810;SDS011;20119;48.334;16.206;2023-04-01T16:10:19;0.43;;;0.40;;
33810;SDS011;20119;48.334;16.206;2023-04-01T16:12:59;0.88;;;0.50;;
33810;SDS011;20119;48.334;16.206;2023-04-01T16:15:37;3.13;;;0.70;;
33810;SDS011;20119;48.334;16.206;2023-04-01T16:18:11;1.02;;;0.65;;
33810;SDS011;20119;48.334;16.206;2023-04-01T16:20:51;0.73;;;0.60;;
33810;SDS011;20119;48.334;16.206;2023-04-01T16:23:22;1.38;;;0.70;;
33810;SDS011;20119;48.334;16.206;2023-04-01T16:26:01;1.55;;;0.70;;
33810;SDS011;20119;48.334;16.206;2023-04-01T16:28:34;1.48;;;0.50;;
33810;SDS011;20119;48.334;16.206;2023-04-01T16:31:08;0.75;;;0.40;;
33810;SDS011;20119;48.334;16.206;2023-04-01T16:33:43;1.63;;;0.80;;
33810;SDS011;20119;48.334;16.206;2023-04-01T16:36:20;3.17;;;1.63;;
33810;SDS011;20119;48.334;16.206;2023-04-01T16:39:06;1.45;;;0.80;;
33810;SDS011;20119;48.334;16.206;2023-04-01T16:42:02;0.80;;;0.40;;
33810;SDS011;20119;48.334;16.206;2023-04-01T16:44:44;0.95;;;0.50;;
33810;SDS011;20119;48.334;16.206;2023-04-01T16:47:18;1.45;;;0.70;;
33810;SDS011;20119;48.334;16.206;2023-04-01T16:49:54;0.88;;;0.52;;
33810;SDS011;20119;48.334;16.206;2023-04-01T16:52:36;0.82;;;0.50;;
33810;SDS011;20119;48.334;16.206;2023-04-01T16:55:18;1.70;;;0.60;;
33810;SDS011;20119;48.334;16.206;2023-04-01T16:57:50;2.45;;;2.25;;